sensor_id;sensor_type;location;lat;lon;timestamp;P1;durP1;ratioP1;P2;durP2;ratioP2
26838;SDS011;40088;51.214;6.786;2024-02-04T00:06:31;4.28;;;3.88;;
26838;SDS011;40088;51.214;6.786;2024-02-04T00:16:32;5.90;;;4.20;;
26838;SDS011;40088;51.214;6.786;2024-02-04T00:26:33;3.90;;;3.50;;
26838;SDS011;40088;51.214;6.786;2024-02-04T00:36:33;3.60;;;3.22;;
26838;SDS011;40088;51.214;6.786;2024-02-04T00:46:34;4.70;;;4.20;;
26838;SDS011;40088;51.214;6.786;2024-02-04T00:56:35;3.53;;;2.58;;
26838;SDS011;40088;51.214;6.786;2024-02-04T01:06:38;3.50;;;3.17;;
26838;SDS011;40088;51.214;6.786;2024-02-04T01:16:38;4.18;;;3.70;;
26838;SDS011;40088;51.214;6.786;2024-02-04T01:26:38;3.50;;;3.20;;
26838;SDS011;40088;51.214;6.786;2024-02-04T01:36:39;3.53;;;2.50;;
26838;SDS011;40088;51.214;6.786;2024-02-04T01:46:40;3.33;;;3.03;;
26838;SDS011;40088;51.214;6.786;2024-02-04T01:56:41;3.85;;;2.80;;
26838;SDS011;40088;51.214;6.786;2024-02-04T02:06:42;2.70;;;2.50;;
26838;SDS011;40088;51.214;6.786;2024-02-04T02:16:44;4.40;;;4.00;;
26838;SDS011;40088;51.214;6.786;2024-02-04T02:47:24;4.68;;;3.38;;
26838;SDS011;40088;51.214;6.786;2024-02-04T02:57:28;4.68;;;3.65;;
26838;SDS011;40088;51.214;6.786;2024-02-04T03:07:30;3.63;;;3.20;;
26838;SDS011;40088;51.214;6.786;2024-02-04T03:17:30;6.37;;;3.60;;
26838;SDS011;40088;51.214;6.786;2024-02-04T03:27:30;4.00;;;3.58;;
26838;SDS011;40088;51.214;6.786;2024-02-04T03:37:31;6.57;;;3.70;;
26838;SDS011;40088;51.214;6.786;2024-02-04T03:47:33;4.05;;;3.47;;
26838;SDS011;40088;51.214;6.786;2024-02-04T03:57:33;5.25;;;4.60;;
26838;SDS011;40088;51.214;6.786;2024-02-04T04:07:35;3.58;;;3.28;;
26838;SDS011;40088;51.214;6.786;2024-02-04T04:17:36;5.05;;;4.10;;
26838;SDS011;40088;51.214;6.786;2024-02-04T04:27:40;7.38;;;4.60;;
26838;SDS011;40088;51.214;6.786;2024-02-04T04:37:40;7.03;;;4.85;;
26838;SDS011;40088;51.214;6.786;2024-02-04T04:47:42;5.18;;;4.43;;
26838;SDS011;40088;51.214;6.786;2024-02-04T04:57:42;7.13;;;5.07;;
26838;SDS011;40088;51.214;6.786;2024-02-04T05:07:42;7.22;;;5.50;;
26838;SDS011;40088;51.214;6.786;2024-02-04T05:17:43;7.63;;;5.43;;
26838;SDS011;40088;51.214;6.786;2024-02-04T05:27:43;8.13;;;6.13;;
26838;SDS011;40088;51.214;6.786;2024-02-04T05:37:44;7.32;;;5.63;;
26838;SDS011;40088;51.214;6.786;2024-02-04T05:47:45;7.30;;;5.97;;
26838;SDS011;40088;51.214;6.786;2024-02-04T05:57:46;8.63;;;7.40;;
26838;SDS011;40088;51.214;6.786;2024-02-04T06:07:46;8.13;;;7.13;;
26838;SDS011;40088;51.214;6.786;2024-02-04T06:17:47;10.23;;;7.37;;
26838;SDS011;40088;51.214;6.786;2024-02-04T06:27:47;11.10;;;9.73;;
26838;SDS011;40088;51.214;6.786;2024-02-04T06:37:47;11.20;;;7.07;;
26838;SDS011;40088;51.214;6.786;2024-02-04T06:47:49;8.98;;;7.75;;
26838;SDS011;40088;51.214;6.786;2024-02-04T06:57:49;7.88;;;6.60;;
26838;SDS011;40088;51.214;6.786;2024-02-04T07:07:49;10.75;;;7.90;;
26838;SDS011;40088;51.214;6.786;2024-02-04T07:17:52;8.88;;;6.88;;
26838;SDS011;40088;51.214;6.786;2024-02-04T07:27:53;8.02;;;6.30;;
26838;SDS011;40088;51.214;6.786;2024-02-04T07:37:53;7.90;;;6.93;;
26838;SDS011;40088;51.214;6.786;2024-02-04T07:47:54;7.40;;;5.47;;
26838;SDS011;40088;51.214;6.786;2024-02-04T07:57:55;5.17;;;4.57;;
26838;SDS011;40088;51.214;6.786;2024-02-04T08:07:55;5.32;;;4.82;;
26838;SDS011;40088;51.214;6.786;2024-02-04T08:17:56;7.85;;;6.45;;
26838;SDS011;40088;51.214;6.786;2024-02-04T08:27:58;5.82;;;4.63;;
26838;SDS011;40088;51.214;6.786;2024-02-04T08:38:02;4.72;;;3.90;;
26838;SDS011;40088;51.214;6.786;2024-02-04T08:48:03;5.57;;;4.90;;
26838;SDS011;40088;51.214;6.786;2024-02-04T08:58:04;6.57;;;4.82;;
26838;SDS011;40088;51.214;6.786;2024-02-04T09:08:04;5.68;;;4.72;;
26838;SDS011;40088;51.214;6.786;2024-02-04T09:18:05;4.72;;;4.07;;
26838;SDS011;40088;51.214;6.786;2024-02-04T09:28:11;7.60;;;5.55;;
26838;SDS011;40088;51.214;6.786;2024-02-04T09:38:12;6.47;;;5.13;;
26838;SDS011;40088;51.214;6.786;2024-02-04T09:48:12;7.13;;;4.63;;
26838;SDS011;40088;51.214;6.786;2024-02-04T09:58:14;5.43;;;4.65;;
26838;SDS011;40088;51.214;6.786;2024-02-04T10:08:15;5.50;;;4.87;;
26838;SDS011;40088;51.214;6.786;2024-02-04T10:18:16;7.68;;;6.60;;
26838;SDS011;40088;51.214;6.786;2024-02-04T10:28:17;6.25;;;5.13;;
26838;SDS011;40088;51.214;6.786;2024-02-04T10:38:18;7.53;;;6.05;;
26838;SDS011;40088;51.214;6.786;2024-02-04T10:48:19;8.73;;;6.43;;
26838;SDS011;40088;51.214;6.786;2024-02-04T10:58:24;7.45;;;5.80;;
26838;SDS011;40088;51.214;6.786;2024-02-04T11:08:25;9.18;;;6.47;;
26838;SDS011;40088;51.214;6.786;2024-02-04T11:18:42;6.43;;;4.95;;
26838;SDS011;40088;51.214;6.786;2024-02-04T11:29:19;6.50;;;5.05;;
26838;SDS011;40088;51.214;6.786;2024-02-04T11:39:24;9.13;;;6.30;;
26838;SDS011;40088;51.214;6.786;2024-02-04T11:49:25;6.55;;;5.22;;
26838;SDS011;40088;51.214;6.786;2024-02-04T11:59:26;6.50;;;5.35;;
26838;SDS011;40088;51.214;6.786;2024-02-04T12:09:27;10.43;;;6.53;;
26838;SDS011;40088;51.214;6.786;2024-02-04T12:19:28;7.28;;;6.00;;
26838;SDS011;40088;51.214;6.786;2024-02-04T12:29:29;8.07;;;4.67;;
26838;SDS011;40088;51.214;6.786;2024-02-04T12:39:30;7.47;;;4.65;;
26838;SDS011;40088;51.214;6.786;2024-02-04T12:49:33;9.05;;;5.55;;
26838;SDS011;40088;51.214;6.786;2024-02-04T12:59:33;6.35;;;5.07;;
26838;SDS011;40088;51.214;6.786;2024-02-04T13:09:37;7.82;;;4.95;;
26838;SDS011;40088;51.214;6.786;2024-02-04T13:19:38;6.50;;;2.85;;
26838;SDS011;40088;51.214;6.786;2024-02-04T13:29:38;6.10;;;4.55;;
26838;SDS011;40088;51.214;6.786;2024-02-04T13:39:39;7.25;;;5.05;;
26838;SDS011;40088;51.214;6.786;2024-02-04T13:49:39;8.27;;;5.82;;
26838;SDS011;40088;51.214;6.786;2024-02-04T13:59:40;6.93;;;5.00;;
26838;SDS011;40088;51.214;6.786;2024-02-04T14:09:40;5.50;;;4.47;;
26838;SDS011;40088;51.214;6.786;2024-02-04T14:19:40;7.53;;;4.50;;
26838;SDS011;40088;51.214;6.786;2024-02-04T14:29:41;9.32;;;6.95;;
26838;SDS011;40088;51.214;6.786;2024-02-04T14:39:42;7.05;;;5.75;;
26838;SDS011;40088;51.214;6.786;2024-02-04T14:49:43;6.97;;;5.28;;
26838;SDS011;40088;51.214;6.786;2024-02-04T14:59:43;6.68;;;4.43;;
26838;SDS011;40088;51.214;6.786;2024-02-04T15:09:44;5.68;;;4.22;;
26838;SDS011;40088;51.214;6.786;2024-02-04T15:19:44;5.88;;;4.35;;
26838;SDS011;40088;51.214;6.786;2024-02-04T15:29:46;6.60;;;5.32;;
26838;SDS011;40088;51.214;6.786;2024-02-04T15:39:48;5.70;;;4.47;;
26838;SDS011;40088;51.214;6.786;2024-02-04T15:49:49;6.32;;;3.80;;
26838;SDS011;40088;51.214;6.786;2024-02-04T16:10:00;4.72;;;4.07;;
26838;SDS011;40088;51.214;6.786;2024-02-04T16:20:01;3.40;;;2.83;;
26838;SDS011;40088;51.214;6.786;2024-02-04T16:30:02;5.38;;;4.05;;
26838;SDS011;40088;51.214;6.786;2024-02-04T16:40:04;7.20;;;6.45;;
26838;SDS011;40088;51.214;6.786;2024-02-04T16:50:05;6.93;;;5.50;;
26838;SDS011;40088;51.214;6.786;2024-02-04T17:00:07;5.18;;;4.05;;
26838;SDS011;40088;51.214;6.786;2024-02-04T17:10:13;5.13;;;4.15;;
26838;SDS011;40088;51.214;6.786;2024-02-04T17:20:14;6.80;;;4.70;;
26838;SDS011;40088;51.214;6.786;2024-02-04T17:30:24;4.28;;;3.45;;
26838;SDS011;40088;51.214;6.786;2024-02-04T17:40:26;5.85;;;3.83;;
26838;SDS011;40088;51.214;6.786;2024-02-04T17:50:31;4.07;;;3.10;;
26838;SDS011;40088;51.214;6.786;2024-02-04T18:00:32;4.57;;;2.78;;
26838;SDS011;40088;51.214;6.786;2024-02-04T18:10:33;6.95;;;4.63;;
26838;SDS011;40088;51.214;6.786;2024-02-04T18:20:41;5.88;;;4.03;;
26838;SDS011;40088;51.214;6.786;2024-02-04T18:30:41;6.55;;;3.10;;
26838;SDS011;40088;51.214;6.786;2024-02-04T18:40:44;8.02;;;4.90;;
26838;SDS011;40088;51.214;6.786;2024-02-04T18:50:44;5.15;;;3.67;;
26838;SDS011;40088;51.214;6.786;2024-02-04T19:00:45;8.88;;;4.80;;
26838;SDS011;40088;51.214;6.786;2024-02-04T19:10:45;12.18;;;6.95;;
26838;SDS011;40088;51.214;6.786;2024-02-04T19:20:45;9.85;;;6.80;;
26838;SDS011;40088;51.214;6.786;2024-02-04T19:30:46;9.77;;;4.80;;
26838;SDS011;40088;51.214;6.786;2024-02-04T19:40:46;6.10;;;4.10;;
26838;SDS011;40088;51.214;6.786;2024-02-04T19:50:46;11.82;;;6.10;;
26838;SDS011;40088;51.214;6.786;2024-02-04T20:00:47;10.32;;;6.05;;
26838;SDS011;40088;51.214;6.786;2024-02-04T20:10:48;7.80;;;5.85;;
26838;SDS011;40088;51.214;6.786;2024-02-04T20:20:49;8.45;;;6.10;;
26838;SDS011;40088;51.214;6.786;2024-02-04T20:30:49;5.23;;;4.00;;
26838;SDS011;40088;51.214;6.786;2024-02-04T20:40:50;11.65;;;4.80;;
26838;SDS011;40088;51.214;6.786;2024-02-04T20:50:51;5.18;;;4.13;;
26838;SDS011;40088;51.214;6.786;2024-02-04T21:00:52;5.45;;;3.95;;
26838;SDS011;40088;51.214;6.786;2024-02-04T21:10:53;9.20;;;5.97;;
26838;SDS011;40088;51.214;6.786;2024-02-04T21:20:53;5.73;;;4.60;;
26838;SDS011;40088;51.214;6.786;2024-02-04T21:30:54;4.70;;;3.93;;
26838;SDS011;40088;51.214;6.786;2024-02-04T21:40:54;5.88;;;4.95;;
26838;SDS011;40088;51.214;6.786;2024-02-04T21:50:55;5.77;;;3.40;;
26838;SDS011;40088;51.214;6.786;2024-02-04T22:00:55;5.60;;;3.95;;
26838;SDS011;40088;51.214;6.786;2024-02-04T22:10:57;4.97;;;3.75;;
26838;SDS011;40088;51.214;6.786;2024-02-04T22:20:57;4.20;;;3.13;;
26838;SDS011;40088;51.214;6.786;2024-02-04T22:30:58;5.50;;;3.20;;
26838;SDS011;40088;51.214;6.786;2024-02-04T22:40:58;4.35;;;3.28;;
26838;SDS011;40088;51.214;6.786;2024-02-04T22:50:59;8.45;;;3.90;;
26838;SDS011;40088;51.214;6.786;2024-02-04T23:00:59;6.93;;;3.93;;
26838;SDS011;40088;51.214;6.786;2024-02-04T23:11:00;6.60;;;4.10;;
26838;SDS011;40088;51.214;6.786;2024-02-04T23:21:02;8.07;;;3.88;;
26838;SDS011;40088;51.214;6.786;2024-02-04T23:31:04;9.40;;;4.38;;
26838;SDS011;40088;51.214;6.786;2024-02-04T23:41:05;7.78;;;5.95;;
26838;SDS011;40088;51.214;6.786;2024-02-04T23:51:07;11.50;;;6.25;;
